createdAt,value
2022-08-07T00:02:40.046Z,0
2022-08-07T00:08:08.215Z,0
2022-08-07T00:13:33.443Z,0
2022-08-07T00:19:25.903Z,0
2022-08-07T00:25:26.859Z,0
2022-08-07T00:31:12.578Z,0
2022-08-07T00:36:44.418Z,0
2022-08-07T00:42:07.833Z,0
2022-08-07T00:48:11.158Z,0
2022-08-07T00:53:49.983Z,0
2022-08-07T00:59:32.619Z,0
2022-08-07T01:04:59.500Z,0
2022-08-07T01:10:22.001Z,0
2022-08-07T01:16:06.276Z,0
2022-08-07T01:21:37.173Z,0
2022-08-07T01:27:01.081Z,0
2022-08-07T01:32:23.488Z,0
2022-08-07T01:37:49.500Z,0
2022-08-07T01:43:16.603Z,0
2022-08-07T01:48:47.548Z,0
2022-08-07T01:54:36.753Z,0
2022-08-07T02:00:03.287Z,0
2022-08-07T02:05:58.593Z,0
2022-08-07T02:12:05.179Z,0
2022-08-07T02:23:00.279Z,0
2022-08-07T02:28:27.120Z,0
2022-08-07T02:34:11.027Z,0
2022-08-07T02:40:02.690Z,0
2022-08-07T02:46:02.822Z,0
2022-08-07T02:51:49.993Z,0
2022-08-07T02:57:16.132Z,0
2022-08-07T03:02:55.483Z,0
2022-08-07T03:08:29.428Z,0
2022-08-07T03:14:15.245Z,0
2022-08-07T03:19:56.140Z,0
2022-08-07T03:25:40.289Z,0
2022-08-07T03:31:08.661Z,0
2022-08-07T03:36:36.624Z,0
2022-08-07T03:42:01.968Z,0
2022-08-07T03:47:24.678Z,0
2022-08-07T03:52:50.972Z,0
2022-08-07T03:59:13.191Z,4
2022-08-07T04:04:39.437Z,13
2022-08-07T04:10:03.122Z,20.8
2022-08-07T04:15:43.077Z,17.2
2022-08-07T04:21:07.724Z,27.4
2022-08-07T04:26:32.338Z,29.8
2022-08-07T04:32:11.013Z,31.2
2022-08-07T04:38:06.676Z,40
2022-08-07T04:44:18.783Z,104.9
2022-08-07T04:50:03.489Z,118.1
2022-08-07T04:58:47.373Z,104.3
2022-08-07T05:05:57.406Z,100.4
2022-08-07T05:11:56.757Z,89.9
2022-08-07T05:17:55.331Z,92.3
2022-08-07T05:23:19.191Z,89.4
2022-08-07T05:28:52.924Z,102.6
2022-08-07T05:34:16.005Z,108.7
2022-08-07T05:40:20.387Z,108.2
2022-08-07T05:45:48.419Z,121.1
2022-08-07T05:51:14.429Z,152.2
2022-08-07T05:56:45.768Z,176.2
2022-08-07T06:02:09.741Z,520.9
2022-08-07T06:08:31.483Z,262.2
2022-08-07T06:14:21.087Z,242.4
2022-08-07T06:20:04.678Z,2190.2
2022-08-07T06:25:36.125Z,2410.1
2022-08-07T06:31:00.200Z,1553.2
2022-08-07T06:36:35.730Z,1156.8
2022-08-07T06:42:03.598Z,874
2022-08-07T06:47:47.922Z,1173.3
2022-08-07T06:55:47.500Z,1320.4
2022-08-07T07:01:42.232Z,1379.3
2022-08-07T07:08:00.436Z,1327.7
2022-08-07T07:14:01.171Z,1232.7
2022-08-07T07:19:59.092Z,491.8
2022-08-07T07:26:37.078Z,1563.4
2022-08-07T07:32:02.685Z,1521
2022-08-07T07:44:18.113Z,1621.1
2022-08-07T07:50:39.230Z,585.5
2022-08-07T07:56:04.200Z,885.4
2022-08-07T08:02:05.403Z,1139.2
2022-08-07T08:08:01.871Z,1559
2022-08-07T08:13:36.827Z,633.2
2022-08-07T08:20:26.312Z,904.1
2022-08-07T08:25:56.453Z,1773.7
2022-08-07T08:32:19.043Z,1988.2
2022-08-07T08:38:07.443Z,1982.5
2022-08-07T11:58:49.654Z,1856
2022-08-07T12:04:21.580Z,2269.6
2022-08-07T12:09:48.505Z,2039.8
2022-08-07T12:15:46.774Z,1986.4
2022-08-07T12:28:31.466Z,2048.9
2022-08-07T12:34:01.626Z,2078.8
2022-08-07T12:39:50.663Z,1959.9
2022-08-07T12:45:18.145Z,2021.9
2022-08-07T12:50:49.782Z,2237.3
2022-08-07T12:56:14.072Z,2183.1
2022-08-07T13:01:44.715Z,2319.5
2022-08-07T13:08:19.002Z,2152.8
2022-08-07T13:13:50.242Z,2465.2
2022-08-07T13:19:45.721Z,2398.1
2022-08-07T13:25:29.161Z,2234.2
2022-08-07T13:31:06.595Z,2485.3
2022-08-07T13:42:25.264Z,2448
2022-08-07T13:48:08.623Z,2984.8
2022-08-07T13:54:03.229Z,2829.8
2022-08-07T13:59:27.410Z,3206.1
2022-08-07T14:04:55.359Z,3205.6
2022-08-07T14:16:31.491Z,2968.1
2022-08-07T14:22:11.490Z,2872.3
2022-08-07T15:57:48.324Z,163.4
2022-08-07T16:03:47.736Z,150.1
2022-08-07T16:09:23.174Z,139.1
2022-08-07T16:15:06.000Z,132.8
2022-08-07T16:20:34.793Z,132.4
2022-08-07T16:26:10.350Z,128.4
2022-08-07T16:32:25.446Z,126.6
2022-08-07T16:38:09.670Z,123.6
2022-08-07T16:44:40.800Z,125.8
2022-08-07T16:52:11.534Z,129.2
2022-08-07T16:58:22.874Z,116.8
2022-08-07T17:10:09.175Z,124
2022-08-07T17:15:56.898Z,126.5
2022-08-07T17:21:23.180Z,130.4
2022-08-07T17:27:00.195Z,129.4
2022-08-07T17:32:35.130Z,134.3
2022-08-07T17:38:35.031Z,131.5
2022-08-07T17:44:08.255Z,108.3
2022-08-07T17:49:58.680Z,110
2022-08-07T17:56:07.004Z,96.1
2022-08-07T18:01:39.042Z,87.6
2022-08-07T18:07:24.770Z,74.9
2022-08-07T18:12:56.980Z,66
2022-08-07T18:21:29.789Z,52.8
2022-08-07T18:27:39.808Z,46.4
2022-08-07T18:33:15.345Z,42.3
2022-08-07T18:40:05.921Z,40.9
2022-08-07T18:46:27.435Z,32.1
2022-08-07T18:52:53.624Z,31.5
2022-08-07T18:58:28.099Z,27.6
2022-08-07T19:03:52.366Z,22.3
2022-08-07T19:09:59.143Z,16.6
2022-08-07T19:16:43.253Z,9
2022-08-07T19:22:45.202Z,2
2022-08-07T19:31:29.879Z,0
2022-08-07T19:37:58.402Z,0
2022-08-07T19:43:52.282Z,0
2022-08-07T19:50:03.090Z,0
2022-08-07T19:57:52.793Z,0
2022-08-07T20:03:36.525Z,0
2022-08-07T20:14:58.421Z,0
2022-08-07T20:20:26.586Z,0
2022-08-07T20:25:53.568Z,0
2022-08-07T20:31:23.261Z,0
2022-08-07T20:36:52.091Z,0
2022-08-07T20:42:14.715Z,0
2022-08-07T20:47:58.729Z,0
2022-08-07T20:54:08.742Z,0
2022-08-07T21:00:11.401Z,0
2022-08-07T21:05:57.397Z,0
2022-08-07T21:11:46.305Z,0
2022-08-07T21:18:28.225Z,0
2022-08-07T21:24:09.966Z,0
2022-08-07T21:29:39.104Z,0
2022-08-07T21:35:15.816Z,0
2022-08-07T21:40:39.281Z,0
2022-08-07T21:46:24.273Z,0
2022-08-07T21:51:56.136Z,0
2022-08-07T21:57:51.606Z,0
2022-08-07T22:03:18.987Z,0
2022-08-07T22:08:55.258Z,0
2022-08-07T22:14:35.045Z,0
2022-08-07T22:20:24.014Z,0
2022-08-07T22:25:48.372Z,0
2022-08-07T22:31:59.855Z,0
2022-08-07T22:38:05.308Z,0
2022-08-07T22:43:34.206Z,0
2022-08-07T23:00:29.279Z,0
2022-08-07T23:06:15.118Z,0
2022-08-07T23:11:46.504Z,0
2022-08-07T23:17:22.382Z,0
2022-08-07T23:22:45.454Z,0
2022-08-07T23:34:39.388Z,0
2022-08-07T23:40:05.974Z,0
2022-08-07T23:46:28.471Z,0
2022-08-07T23:57:34.794Z,0
